This is the latest recevied weather packets stored in our database for station/object AA0PB. If no packets are shown the sender has not sent any weather packets the latest 1 day(s).
| Time | Temp. | Humidity | Pressure | Rain* | Wind** | Luminosity | Snow |
|---|---|---|---|---|---|---|---|
| 1778100164 | 20° C | 68% | 1020.9 hPa | 0 mm | - | 444 W/m² | - |
| 1778099862 | 19.44° C | 70% | 1020.9 hPa | 0 mm | - | 343 W/m² | - |
| 1778099559 | 20° C | 69% | 1021 hPa | 0 mm | - | 371 W/m² | - |
| 1778097740 | 19.44° C | 71% | 1021.1 hPa | 0 mm | - | 448 W/m² | - |
| 1778096225 | 20° C | 70% | 1021.3 hPa | 0 mm | - | 341 W/m² | - |
| 1778095922 | 20.56° C | 66% | 1021.1 hPa | 0 mm | - | 424 W/m² | - |
| 1778095012 | 19.44° C | 71% | 1021.1 hPa | 0 mm | - | 880 W/m² | - |
| 1778094708 | 18.33° C | 72% | 1021.5 hPa | 0 mm | - | 742 W/m² | - |
| 1778093799 | 17.78° C | 74% | 1021.3 hPa | 0 mm | - | 598 W/m² | - |
| 1778093495 | 17.78° C | 75% | 1021.3 hPa | 0 mm | - | 501 W/m² | - |
| 1778092890 | 17.22° C | 76% | 1021.4 hPa | 0 mm | - | 333 W/m² | - |
| 1778091980 | 16.67° C | 77% | 1021.5 hPa | 0 mm | - | 394 W/m² | - |
| 1778091375 | 17.22° C | 77% | 1021.4 hPa | 0 mm | - | 344 W/m² | - |
| 1778090465 | 16.11° C | 80% | 1021.2 hPa | 0 mm | - | 309 W/m² | - |
| 1778089252 | 15.56° C | 80% | 1021.2 hPa | 0 mm | - | 187 W/m² | - |
| 1778088950 | 16.11° C | 78% | 1021.5 hPa | 0 mm | - | 185 W/m² | - |
| 1778088344 | 15.56° C | 81% | 1021.3 hPa | 0 mm | - | 198 W/m² | - |
| 1778088040 | 15.56° C | 81% | 1021.1 hPa | 0 mm | - | 180 W/m² | - |
| 1778086824 | 15.56° C | 78% | 1021 hPa | 0 mm | - | 228 W/m² | - |
| 1778085915 | 15.56° C | 78% | 1021.2 hPa | 0 mm | - | 234 W/m² | - |
| 1778079949 | 13.89° C | 85% | 1020.6 hPa | 0 mm | - | 116 W/m² | - |
| 1778079646 | 13.33° C | 85% | 1021 hPa | 0 mm | - | 84 W/m² | - |
| 1778079040 | 13.33° C | 86% | 1021.3 hPa | 0 mm | - | 58 W/m² | - |
| 1778078434 | 13.33° C | 86% | 1021 hPa | 0 mm | - | 46 W/m² | - |
| 1778077527 | 13.33° C | 87% | 1021.1 hPa | 0 mm | - | 24 W/m² | - |
* Rain latest hour (hover to see other rain measurements)
** Current wind speed in m/s (hover to see current wind gust speed)